LTFE Airport Information

Runway Information
Runway 11 Length 9842 ft width 148 ft
Elevation 9 ft Threshold 0 ft Heading 107
Runway 29 Length 9842 ft Width 148 ft
Elevation 21 ft Threshold 0 ft Heading 287
Airport Frequencies
Type APP Name MENDERES A Frequency 119.5 MHZ
Type APP Name MENDERES A Frequency 119.775 MHZ
Type ATIS Name ATIS Frequency 128.5 MHZ
Type GND Name GND Frequency 121.95 MHZ
Type TWR Name TWR Frequency 120.5 MHZ
Airport Navaids
Type VOR-DME Name Milas Bodrum Frequency 116700 KHZ
Type NDB Name Milas Bodrum Frequency 389 KHZ
Type VOR-DME Name Kiyikislacik Frequency 113900 KHZ
Airport Weather Information & NOTAM
ADDS - METARS form results

(1142 UTC 21 April 2018)
 
METAR text: LTFE 211120Z 34015G26KT CAVOK 24/01 Q1011 NOSIG RMK RWY10 03017KT
Conditions at: LTFE (BODRUM MILAS , TR) observed 1120 UTC 21 April 2018
Temperature: 24.0°C (75°F)
Dewpoint: 1.0°C (34°F) [RH = 22%]
Pressure (altimeter): 29.85 inches Hg (1011.0 mb)
Winds: from the NNW (340 degrees) at 17 MPH (15 knots; 7.8 m/s)
gusting to 30 MPH (26 knots; 13.5 m/s)
Visibility: 6 or more miles (10+ km)
Ceiling: ceiling and visibility are OK
Clouds: unknown
Weather: no significant weather observed at this time

METAR text: LTFE 211050Z 35016G27KT 320V020 CAVOK 23/01 Q1011 NOSIG RMK RWY10 02017KT 350V050
Conditions at: LTFE (BODRUM MILAS , TR) observed 1050 UTC 21 April 2018
Temperature: 23.0°C (73°F)
Dewpoint: 1.0°C (34°F) [RH = 23%]
Pressure (altimeter): 29.85 inches Hg (1011.0 mb)
Winds: from the N (350 degrees) at 18 MPH (16 knots; 8.3 m/s)
gusting to 31 MPH (27 knots; 14.0 m/s)
Visibility: 6 or more miles (10+ km)
Ceiling: ceiling and visibility are OK
Clouds: unknown
Weather: no significant weather observed at this time